sensor_id;sensor_type;location;lat;lon;timestamp;temperature;humidity
16327;DHT22;34812;49.846;9.610;2023-04-15T00:00:19;3.80;99.90
16327;DHT22;34812;49.846;9.610;2023-04-15T00:01:21;3.80;99.90
16327;DHT22;34812;49.846;9.610;2023-04-15T00:02:23;3.80;99.90
16327;DHT22;34812;49.846;9.610;2023-04-15T00:03:25;3.80;99.90
16327;DHT22;34812;49.846;9.610;2023-04-15T00:04:26;3.80;99.90
16327;DHT22;34812;49.846;9.610;2023-04-15T00:05:29;3.80;99.90
16327;DHT22;34812;49.846;9.610;2023-04-15T00:06:30;3.80;99.90
16327;DHT22;34812;49.846;9.610;2023-04-15T00:07:32;3.80;99.90
16327;DHT22;34812;49.846;9.610;2023-04-15T00:08:32;3.80;99.90
16327;DHT22;34812;49.846;9.610;2023-04-15T00:09:34;3.80;99.90
16327;DHT22;34812;49.846;9.610;2023-04-15T00:10:35;3.80;99.90
16327;DHT22;34812;49.846;9.610;2023-04-15T00:11:37;3.90;99.90
16327;DHT22;34812;49.846;9.610;2023-04-15T00:12:37;3.80;99.90
16327;DHT22;34812;49.846;9.610;2023-04-15T00:13:39;3.80;99.90
16327;DHT22;34812;49.846;9.610;2023-04-15T00:14:40;3.80;99.90
16327;DHT22;34812;49.846;9.610;2023-04-15T00:15:42;3.80;99.90
16327;DHT22;34812;49.846;9.610;2023-04-15T00:16:42;3.80;99.90
16327;DHT22;34812;49.846;9.610;2023-04-15T00:17:45;3.80;99.90
16327;DHT22;34812;49.846;9.610;2023-04-15T00:18:47;3.80;99.90
16327;DHT22;34812;49.846;9.610;2023-04-15T00:19:48;3.80;99.90
16327;DHT22;34812;49.846;9.610;2023-04-15T00:20:49;3.80;99.90
16327;DHT22;34812;49.846;9.610;2023-04-15T00:21:51;3.80;99.90
16327;DHT22;34812;49.846;9.610;2023-04-15T00:22:52;3.80;99.90
16327;DHT22;34812;49.846;9.610;2023-04-15T00:23:54;3.80;99.90
16327;DHT22;34812;49.846;9.610;2023-04-15T00:24:55;3.80;99.90
16327;DHT22;34812;49.846;9.610;2023-04-15T00:25:57;3.70;99.90
16327;DHT22;34812;49.846;9.610;2023-04-15T00:26:57;3.80;99.90
16327;DHT22;34812;49.846;9.610;2023-04-15T00:27:59;3.70;99.90
16327;DHT22;34812;49.846;9.610;2023-04-15T00:29:00;3.70;99.90
16327;DHT22;34812;49.846;9.610;2023-04-15T00:30:02;3.70;99.90
16327;DHT22;34812;49.846;9.610;2023-04-15T00:31:03;3.70;99.90
16327;DHT22;34812;49.846;9.610;2023-04-15T00:32:05;3.70;99.90
16327;DHT22;34812;49.846;9.610;2023-04-15T00:33:08;3.60;99.90
16327;DHT22;34812;49.846;9.610;2023-04-15T00:34:10;3.60;99.90
16327;DHT22;34812;49.846;9.610;2023-04-15T00:35:10;3.60;99.90
16327;DHT22;34812;49.846;9.610;2023-04-15T00:36:12;3.60;99.90
16327;DHT22;34812;49.846;9.610;2023-04-15T00:37:13;3.60;99.90
16327;DHT22;34812;49.846;9.610;2023-04-15T00:38:15;3.60;99.90
16327;DHT22;34812;49.846;9.610;2023-04-15T00:39:15;3.60;99.90
16327;DHT22;34812;49.846;9.610;2023-04-15T00:40:18;3.60;99.90
16327;DHT22;34812;49.846;9.610;2023-04-15T00:41:20;3.60;99.90
16327;DHT22;34812;49.846;9.610;2023-04-15T00:42:23;3.60;99.90
16327;DHT22;34812;49.846;9.610;2023-04-15T00:43:25;3.60;99.90
16327;DHT22;34812;49.846;9.610;2023-04-15T00:44:27;3.60;99.90
16327;DHT22;34812;49.846;9.610;2023-04-15T00:45:28;3.50;99.90
16327;DHT22;34812;49.846;9.610;2023-04-15T00:46:29;3.50;99.90
16327;DHT22;34812;49.846;9.610;2023-04-15T00:47:32;3.50;99.90
16327;DHT22;34812;49.846;9.610;2023-04-15T00:48:36;3.50;99.90
16327;DHT22;34812;49.846;9.610;2023-04-15T00:49:39;3.50;99.90
16327;DHT22;34812;49.846;9.610;2023-04-15T00:50:40;3.50;99.90
16327;DHT22;34812;49.846;9.610;2023-04-15T00:51:42;3.50;99.90
16327;DHT22;34812;49.846;9.610;2023-04-15T00:52:43;3.50;99.90
16327;DHT22;34812;49.846;9.610;2023-04-15T00:53:45;3.50;99.90
16327;DHT22;34812;49.846;9.610;2023-04-15T00:54:46;3.50;99.90
16327;DHT22;34812;49.846;9.610;2023-04-15T00:55:48;3.50;99.90
16327;DHT22;34812;49.846;9.610;2023-04-15T00:56:49;3.50;99.90
16327;DHT22;34812;49.846;9.610;2023-04-15T00:57:51;3.50;99.90
16327;DHT22;34812;49.846;9.610;2023-04-15T00:58:52;3.50;99.90
16327;DHT22;34812;49.846;9.610;2023-04-15T00:59:54;3.60;99.90
16327;DHT22;34812;49.846;9.610;2023-04-15T01:00:56;3.60;99.90
16327;DHT22;34812;49.846;9.610;2023-04-15T01:01:58;3.70;99.90
16327;DHT22;34812;49.846;9.610;2023-04-15T01:02:59;3.70;99.90
16327;DHT22;34812;49.846;9.610;2023-04-15T01:04:02;3.70;99.90
16327;DHT22;34812;49.846;9.610;2023-04-15T01:05:04;3.70;99.90
16327;DHT22;34812;49.846;9.610;2023-04-15T01:06:07;3.70;99.90
16327;DHT22;34812;49.846;9.610;2023-04-15T01:07:08;3.70;99.90
16327;DHT22;34812;49.846;9.610;2023-04-15T01:08:10;3.70;99.90
16327;DHT22;34812;49.846;9.610;2023-04-15T01:09:10;3.70;99.90
16327;DHT22;34812;49.846;9.610;2023-04-15T01:10:13;3.70;99.90
16327;DHT22;34812;49.846;9.610;2023-04-15T01:11:15;3.80;99.90
16327;DHT22;34812;49.846;9.610;2023-04-15T01:12:19;3.80;99.90
16327;DHT22;34812;49.846;9.610;2023-04-15T01:13:20;3.80;99.90
16327;DHT22;34812;49.846;9.610;2023-04-15T01:14:22;3.90;99.90
16327;DHT22;34812;49.846;9.610;2023-04-15T01:15:23;3.80;99.90
16327;DHT22;34812;49.846;9.610;2023-04-15T01:16:25;3.90;99.90
16327;DHT22;34812;49.846;9.610;2023-04-15T01:17:28;3.90;99.90
16327;DHT22;34812;49.846;9.610;2023-04-15T01:18:29;3.90;99.90
16327;DHT22;34812;49.846;9.610;2023-04-15T01:19:32;3.90;99.90
16327;DHT22;34812;49.846;9.610;2023-04-15T01:20:34;3.80;99.90
16327;DHT22;34812;49.846;9.610;2023-04-15T01:21:36;3.80;99.90
16327;DHT22;34812;49.846;9.610;2023-04-15T01:22:39;3.80;99.90
16327;DHT22;34812;49.846;9.610;2023-04-15T01:23:43;3.80;99.90
16327;DHT22;34812;49.846;9.610;2023-04-15T01:24:54;3.80;99.90
16327;DHT22;34812;49.846;9.610;2023-04-15T01:25:58;3.80;99.90
16327;DHT22;34812;49.846;9.610;2023-04-15T01:27:00;3.80;99.90
16327;DHT22;34812;49.846;9.610;2023-04-15T01:28:01;3.80;99.90
16327;DHT22;34812;49.846;9.610;2023-04-15T01:29:03;3.80;99.90
16327;DHT22;34812;49.846;9.610;2023-04-15T01:30:05;3.80;99.90
16327;DHT22;34812;49.846;9.610;2023-04-15T01:31:08;3.80;99.90
16327;DHT22;34812;49.846;9.610;2023-04-15T01:32:11;3.80;99.90
16327;DHT22;34812;49.846;9.610;2023-04-15T01:33:13;3.80;99.90
16327;DHT22;34812;49.846;9.610;2023-04-15T01:34:13;3.80;99.90
16327;DHT22;34812;49.846;9.610;2023-04-15T01:35:15;3.80;99.90
16327;DHT22;34812;49.846;9.610;2023-04-15T01:36:17;3.80;99.90
16327;DHT22;34812;49.846;9.610;2023-04-15T01:37:19;3.80;99.90
16327;DHT22;34812;49.846;9.610;2023-04-15T01:38:20;3.80;99.90
16327;DHT22;34812;49.846;9.610;2023-04-15T01:39:22;3.80;99.90
16327;DHT22;34812;49.846;9.610;2023-04-15T01:40:22;3.80;99.90
16327;DHT22;34812;49.846;9.610;2023-04-15T01:41:26;3.80;99.90
16327;DHT22;34812;49.846;9.610;2023-04-15T01:42:27;3.80;99.90
16327;DHT22;34812;49.846;9.610;2023-04-15T01:43:29;3.80;99.90
16327;DHT22;34812;49.846;9.610;2023-04-15T01:44:30;3.80;99.90
16327;DHT22;34812;49.846;9.610;2023-04-15T01:45:31;3.80;99.90
16327;DHT22;34812;49.846;9.610;2023-04-15T01:46:33;3.80;99.90
16327;DHT22;34812;49.846;9.610;2023-04-15T01:47:34;3.90;99.90
16327;DHT22;34812;49.846;9.610;2023-04-15T01:48:35;3.80;99.90
16327;DHT22;34812;49.846;9.610;2023-04-15T01:49:37;3.90;99.90
16327;DHT22;34812;49.846;9.610;2023-04-15T01:50:38;3.80;99.90
16327;DHT22;34812;49.846;9.610;2023-04-15T01:51:40;3.80;99.90
16327;DHT22;34812;49.846;9.610;2023-04-15T01:52:42;3.90;99.90
16327;DHT22;34812;49.846;9.610;2023-04-15T01:53:42;3.90;99.90
16327;DHT22;34812;49.846;9.610;2023-04-15T01:54:44;3.90;99.90
16327;DHT22;34812;49.846;9.610;2023-04-15T01:55:46;3.90;99.90
16327;DHT22;34812;49.846;9.610;2023-04-15T01:56:50;3.90;99.90
16327;DHT22;34812;49.846;9.610;2023-04-15T01:57:50;3.90;99.90
16327;DHT22;34812;49.846;9.610;2023-04-15T01:58:52;3.90;99.90
16327;DHT22;34812;49.846;9.610;2023-04-15T01:59:53;3.90;99.90
16327;DHT22;34812;49.846;9.610;2023-04-15T02:00:55;3.90;99.90
16327;DHT22;34812;49.846;9.610;2023-04-15T02:01:57;3.90;99.90
16327;DHT22;34812;49.846;9.610;2023-04-15T02:03:01;3.90;99.90
16327;DHT22;34812;49.846;9.610;2023-04-15T02:04:02;3.90;99.90
16327;DHT22;34812;49.846;9.610;2023-04-15T02:05:05;4.00;99.90
16327;DHT22;34812;49.846;9.610;2023-04-15T02:06:06;3.90;99.90
16327;DHT22;34812;49.846;9.610;2023-04-15T02:07:08;4.00;99.90
16327;DHT22;34812;49.846;9.610;2023-04-15T02:08:09;4.00;99.90
16327;DHT22;34812;49.846;9.610;2023-04-15T02:09:12;3.90;99.90
16327;DHT22;34812;49.846;9.610;2023-04-15T02:10:13;3.90;99.90
16327;DHT22;34812;49.846;9.610;2023-04-15T02:11:16;3.90;99.90
16327;DHT22;34812;49.846;9.610;2023-04-15T02:12:18;3.90;99.90
16327;DHT22;34812;49.846;9.610;2023-04-15T02:13:20;3.90;99.90
16327;DHT22;34812;49.846;9.610;2023-04-15T02:14:23;3.90;99.90
16327;DHT22;34812;49.846;9.610;2023-04-15T02:15:24;4.00;99.90
16327;DHT22;34812;49.846;9.610;2023-04-15T02:16:25;4.00;99.90
16327;DHT22;34812;49.846;9.610;2023-04-15T02:17:27;3.90;99.90
16327;DHT22;34812;49.846;9.610;2023-04-15T02:18:27;4.00;99.90
16327;DHT22;34812;49.846;9.610;2023-04-15T02:19:29;4.00;99.90
16327;DHT22;34812;49.846;9.610;2023-04-15T02:20:30;4.00;99.90
16327;DHT22;34812;49.846;9.610;2023-04-15T02:21:32;4.00;99.90
16327;DHT22;34812;49.846;9.610;2023-04-15T02:22:34;3.90;99.90
16327;DHT22;34812;49.846;9.610;2023-04-15T02:23:36;4.00;99.90
16327;DHT22;34812;49.846;9.610;2023-04-15T02:24:38;4.00;99.90
16327;DHT22;34812;49.846;9.610;2023-04-15T02:25:39;4.00;99.90
16327;DHT22;34812;49.846;9.610;2023-04-15T02:26:40;4.00;99.90
16327;DHT22;34812;49.846;9.610;2023-04-15T02:27:43;4.00;99.90
16327;DHT22;34812;49.846;9.610;2023-04-15T02:28:45;4.00;99.90
16327;DHT22;34812;49.846;9.610;2023-04-15T02:29:48;4.00;99.90
16327;DHT22;34812;49.846;9.610;2023-04-15T02:30:50;4.00;99.90
16327;DHT22;34812;49.846;9.610;2023-04-15T02:31:52;4.00;99.90
16327;DHT22;34812;49.846;9.610;2023-04-15T02:32:54;4.00;99.90
16327;DHT22;34812;49.846;9.610;2023-04-15T02:33:58;3.90;99.90
16327;DHT22;34812;49.846;9.610;2023-04-15T02:35:02;4.00;99.90
16327;DHT22;34812;49.846;9.610;2023-04-15T02:36:04;4.00;99.90
16327;DHT22;34812;49.846;9.610;2023-04-15T02:37:06;4.00;99.90
16327;DHT22;34812;49.846;9.610;2023-04-15T02:38:08;3.90;99.90
16327;DHT22;34812;49.846;9.610;2023-04-15T02:39:10;4.00;99.90
16327;DHT22;34812;49.846;9.610;2023-04-15T02:40:13;4.00;99.90
16327;DHT22;34812;49.846;9.610;2023-04-15T02:41:15;4.00;99.90
16327;DHT22;34812;49.846;9.610;2023-04-15T02:42:17;4.00;99.90
16327;DHT22;34812;49.846;9.610;2023-04-15T02:43:23;4.00;99.90
16327;DHT22;34812;49.846;9.610;2023-04-15T02:44:25;4.00;99.90
16327;DHT22;34812;49.846;9.610;2023-04-15T02:45:31;3.90;99.90
16327;DHT22;34812;49.846;9.610;2023-04-15T02:46:34;4.00;99.90
16327;DHT22;34812;49.846;9.610;2023-04-15T02:47:36;3.90;99.90
16327;DHT22;34812;49.846;9.610;2023-04-15T02:48:39;3.90;99.90
16327;DHT22;34812;49.846;9.610;2023-04-15T02:49:42;4.00;99.90
16327;DHT22;34812;49.846;9.610;2023-04-15T02:50:44;4.00;99.90
16327;DHT22;34812;49.846;9.610;2023-04-15T02:51:47;4.00;99.90
16327;DHT22;34812;49.846;9.610;2023-04-15T02:52:49;3.90;99.90
16327;DHT22;34812;49.846;9.610;2023-04-15T02:53:50;4.00;99.90
16327;DHT22;34812;49.846;9.610;2023-04-15T02:54:51;3.90;99.90
16327;DHT22;34812;49.846;9.610;2023-04-15T02:55:56;3.90;99.90
16327;DHT22;34812;49.846;9.610;2023-04-15T02:56:58;4.00;99.90
16327;DHT22;34812;49.846;9.610;2023-04-15T02:58:01;4.00;99.90
16327;DHT22;34812;49.846;9.610;2023-04-15T02:59:03;3.90;99.90
16327;DHT22;34812;49.846;9.610;2023-04-15T03:00:06;3.90;99.90
16327;DHT22;34812;49.846;9.610;2023-04-15T03:01:09;3.90;99.90
16327;DHT22;34812;49.846;9.610;2023-04-15T03:02:11;3.90;99.90
16327;DHT22;34812;49.846;9.610;2023-04-15T03:03:12;3.90;99.90
16327;DHT22;34812;49.846;9.610;2023-04-15T03:04:14;3.90;99.90
16327;DHT22;34812;49.846;9.610;2023-04-15T03:05:15;3.90;99.90
16327;DHT22;34812;49.846;9.610;2023-04-15T03:06:22;3.90;99.90
16327;DHT22;34812;49.846;9.610;2023-04-15T03:07:24;3.90;99.90
16327;DHT22;34812;49.846;9.610;2023-04-15T03:08:26;3.90;99.90
16327;DHT22;34812;49.846;9.610;2023-04-15T03:09:29;3.90;99.90
16327;DHT22;34812;49.846;9.610;2023-04-15T03:10:32;3.90;99.90
16327;DHT22;34812;49.846;9.610;2023-04-15T03:11:35;3.90;99.90
16327;DHT22;34812;49.846;9.610;2023-04-15T03:12:41;3.90;99.90
16327;DHT22;34812;49.846;9.610;2023-04-15T03:13:44;3.90;99.90
16327;DHT22;34812;49.846;9.610;2023-04-15T03:14:58;3.90;99.90
16327;DHT22;34812;49.846;9.610;2023-04-15T03:16:07;3.90;99.90
16327;DHT22;34812;49.846;9.610;2023-04-15T03:17:08;3.90;99.90
16327;DHT22;34812;49.846;9.610;2023-04-15T03:18:10;3.90;99.90
16327;DHT22;34812;49.846;9.610;2023-04-15T03:19:11;3.90;99.90
16327;DHT22;34812;49.846;9.610;2023-04-15T03:20:15;3.90;99.90
16327;DHT22;34812;49.846;9.610;2023-04-15T03:21:16;3.80;99.90
16327;DHT22;34812;49.846;9.610;2023-04-15T03:22:19;3.80;99.90
16327;DHT22;34812;49.846;9.610;2023-04-15T03:23:20;3.80;99.90
16327;DHT22;34812;49.846;9.610;2023-04-15T03:24:23;3.80;99.90
16327;DHT22;34812;49.846;9.610;2023-04-15T03:25:24;3.80;99.90
16327;DHT22;34812;49.846;9.610;2023-04-15T03:26:27;3.80;99.90
16327;DHT22;34812;49.846;9.610;2023-04-15T03:27:28;3.80;99.90
16327;DHT22;34812;49.846;9.610;2023-04-15T03:28:34;3.80;99.90
16327;DHT22;34812;49.846;9.610;2023-04-15T03:29:36;3.70;99.90
16327;DHT22;34812;49.846;9.610;2023-04-15T03:30:39;3.70;99.90
16327;DHT22;34812;49.846;9.610;2023-04-15T03:31:40;3.70;99.90
16327;DHT22;34812;49.846;9.610;2023-04-15T03:32:41;3.70;99.90
16327;DHT22;34812;49.846;9.610;2023-04-15T03:33:42;3.70;99.90
16327;DHT22;34812;49.846;9.610;2023-04-15T03:34:44;3.70;99.90
16327;DHT22;34812;49.846;9.610;2023-04-15T03:35:45;3.70;99.90
16327;DHT22;34812;49.846;9.610;2023-04-15T03:36:47;3.70;99.90
16327;DHT22;34812;49.846;9.610;2023-04-15T03:37:48;3.60;99.90
16327;DHT22;34812;49.846;9.610;2023-04-15T03:38:49;3.60;99.90
16327;DHT22;34812;49.846;9.610;2023-04-15T03:39:51;3.60;99.90
16327;DHT22;34812;49.846;9.610;2023-04-15T03:40:51;3.60;99.90
16327;DHT22;34812;49.846;9.610;2023-04-15T03:41:53;3.60;99.90
16327;DHT22;34812;49.846;9.610;2023-04-15T03:42:54;3.60;99.90
16327;DHT22;34812;49.846;9.610;2023-04-15T03:43:56;3.60;99.90
16327;DHT22;34812;49.846;9.610;2023-04-15T03:44:57;3.60;99.90
16327;DHT22;34812;49.846;9.610;2023-04-15T03:46:00;3.60;99.90
16327;DHT22;34812;49.846;9.610;2023-04-15T03:47:01;3.60;99.90
16327;DHT22;34812;49.846;9.610;2023-04-15T03:48:03;3.60;99.90
16327;DHT22;34812;49.846;9.610;2023-04-15T03:49:05;3.60;99.90
16327;DHT22;34812;49.846;9.610;2023-04-15T03:50:07;3.60;99.90
16327;DHT22;34812;49.846;9.610;2023-04-15T03:51:08;3.60;99.90
16327;DHT22;34812;49.846;9.610;2023-04-15T03:52:10;3.70;99.90
16327;DHT22;34812;49.846;9.610;2023-04-15T03:53:11;3.70;99.90
16327;DHT22;34812;49.846;9.610;2023-04-15T03:54:12;3.70;99.90
16327;DHT22;34812;49.846;9.610;2023-04-15T03:55:14;3.70;99.90
16327;DHT22;34812;49.846;9.610;2023-04-15T03:56:16;3.70;99.90
16327;DHT22;34812;49.846;9.610;2023-04-15T03:57:17;3.70;99.90
16327;DHT22;34812;49.846;9.610;2023-04-15T03:58:19;3.70;99.90
16327;DHT22;34812;49.846;9.610;2023-04-15T03:59:20;3.70;99.90
16327;DHT22;34812;49.846;9.610;2023-04-15T04:00:21;3.70;99.90
16327;DHT22;34812;49.846;9.610;2023-04-15T04:01:24;3.70;99.90
16327;DHT22;34812;49.846;9.610;2023-04-15T04:02:25;3.70;99.90
16327;DHT22;34812;49.846;9.610;2023-04-15T04:03:27;3.70;99.90
16327;DHT22;34812;49.846;9.610;2023-04-15T04:04:29;3.70;99.90
16327;DHT22;34812;49.846;9.610;2023-04-15T04:05:30;3.70;99.90
16327;DHT22;34812;49.846;9.610;2023-04-15T04:06:32;3.70;99.90
16327;DHT22;34812;49.846;9.610;2023-04-15T04:07:32;3.60;99.90
16327;DHT22;34812;49.846;9.610;2023-04-15T04:08:34;3.60;99.90
16327;DHT22;34812;49.846;9.610;2023-04-15T04:09:35;3.60;99.90
16327;DHT22;34812;49.846;9.610;2023-04-15T04:10:38;3.60;99.90
16327;DHT22;34812;49.846;9.610;2023-04-15T04:11:39;3.60;99.90
16327;DHT22;34812;49.846;9.610;2023-04-15T04:12:41;3.60;99.90
16327;DHT22;34812;49.846;9.610;2023-04-15T04:13:41;3.70;99.90
16327;DHT22;34812;49.846;9.610;2023-04-15T04:14:43;3.60;99.90
16327;DHT22;34812;49.846;9.610;2023-04-15T04:15:44;3.60;99.90
16327;DHT22;34812;49.846;9.610;2023-04-15T04:16:47;3.60;99.90
16327;DHT22;34812;49.846;9.610;2023-04-15T04:17:48;3.60;99.90
16327;DHT22;34812;49.846;9.610;2023-04-15T04:18:50;3.60;99.90
16327;DHT22;34812;49.846;9.610;2023-04-15T04:19:51;3.60;99.90
16327;DHT22;34812;49.846;9.610;2023-04-15T04:20:52;3.60;99.90
16327;DHT22;34812;49.846;9.610;2023-04-15T04:21:53;3.70;99.90
16327;DHT22;34812;49.846;9.610;2023-04-15T04:22:55;3.70;99.90
16327;DHT22;34812;49.846;9.610;2023-04-15T04:23:55;3.70;99.90
16327;DHT22;34812;49.846;9.610;2023-04-15T04:24:58;3.70;99.90
16327;DHT22;34812;49.846;9.610;2023-04-15T04:26:01;3.70;99.90
16327;DHT22;34812;49.846;9.610;2023-04-15T04:27:02;3.70;99.90
16327;DHT22;34812;49.846;9.610;2023-04-15T04:28:03;3.70;99.90
16327;DHT22;34812;49.846;9.610;2023-04-15T04:29:05;3.70;99.90
16327;DHT22;34812;49.846;9.610;2023-04-15T04:30:07;3.70;99.90
16327;DHT22;34812;49.846;9.610;2023-04-15T04:31:09;3.70;99.90
16327;DHT22;34812;49.846;9.610;2023-04-15T04:32:11;3.70;99.90
16327;DHT22;34812;49.846;9.610;2023-04-15T04:33:12;3.70;99.90
16327;DHT22;34812;49.846;9.610;2023-04-15T04:34:13;3.70;99.90
16327;DHT22;34812;49.846;9.610;2023-04-15T04:35:15;3.70;99.90
16327;DHT22;34812;49.846;9.610;2023-04-15T04:36:16;3.70;99.90
16327;DHT22;34812;49.846;9.610;2023-04-15T04:37:17;3.70;99.90
16327;DHT22;34812;49.846;9.610;2023-04-15T04:38:18;3.70;99.90
16327;DHT22;34812;49.846;9.610;2023-04-15T04:39:20;3.70;99.90
16327;DHT22;34812;49.846;9.610;2023-04-15T04:40:21;3.80;99.90
16327;DHT22;34812;49.846;9.610;2023-04-15T04:41:22;3.80;99.90
16327;DHT22;34812;49.846;9.610;2023-04-15T04:42:23;3.80;99.90
16327;DHT22;34812;49.846;9.610;2023-04-15T04:43:25;3.80;99.90
16327;DHT22;34812;49.846;9.610;2023-04-15T04:44:26;3.80;99.90
16327;DHT22;34812;49.846;9.610;2023-04-15T04:45:28;3.80;99.90
16327;DHT22;34812;49.846;9.610;2023-04-15T04:46:29;3.80;99.90
16327;DHT22;34812;49.846;9.610;2023-04-15T04:47:32;3.80;99.90
16327;DHT22;34812;49.846;9.610;2023-04-15T04:48:33;3.80;99.90
16327;DHT22;34812;49.846;9.610;2023-04-15T04:49:34;3.80;99.90
16327;DHT22;34812;49.846;9.610;2023-04-15T04:50:36;3.80;99.90
16327;DHT22;34812;49.846;9.610;2023-04-15T04:51:38;3.90;99.90
16327;DHT22;34812;49.846;9.610;2023-04-15T04:52:38;3.90;99.90
16327;DHT22;34812;49.846;9.610;2023-04-15T04:53:40;3.90;99.90
16327;DHT22;34812;49.846;9.610;2023-04-15T04:54:42;3.90;99.90
16327;DHT22;34812;49.846;9.610;2023-04-15T04:55:44;3.90;99.90
16327;DHT22;34812;49.846;9.610;2023-04-15T04:56:45;4.00;99.90
16327;DHT22;34812;49.846;9.610;2023-04-15T04:57:46;4.00;99.90
16327;DHT22;34812;49.846;9.610;2023-04-15T04:58:47;4.00;99.90
16327;DHT22;34812;49.846;9.610;2023-04-15T04:59:49;4.00;99.90
16327;DHT22;34812;49.846;9.610;2023-04-15T05:00:50;4.10;99.90
16327;DHT22;34812;49.846;9.610;2023-04-15T05:01:51;4.10;99.90
16327;DHT22;34812;49.846;9.610;2023-04-15T05:02:54;4.10;99.90
16327;DHT22;34812;49.846;9.610;2023-04-15T05:03:55;4.10;99.90
16327;DHT22;34812;49.846;9.610;2023-04-15T05:04:56;4.20;99.90
16327;DHT22;34812;49.846;9.610;2023-04-15T05:05:58;4.20;99.90
16327;DHT22;34812;49.846;9.610;2023-04-15T05:06:59;4.20;99.90
16327;DHT22;34812;49.846;9.610;2023-04-15T05:08:00;4.20;99.90
16327;DHT22;34812;49.846;9.610;2023-04-15T05:09:01;4.20;99.90
16327;DHT22;34812;49.846;9.610;2023-04-15T05:10:04;4.20;99.90
16327;DHT22;34812;49.846;9.610;2023-04-15T05:11:05;4.30;99.90
16327;DHT22;34812;49.846;9.610;2023-04-15T05:12:07;4.30;99.90
16327;DHT22;34812;49.846;9.610;2023-04-15T05:13:08;4.30;99.90
16327;DHT22;34812;49.846;9.610;2023-04-15T05:14:10;4.30;99.90
16327;DHT22;34812;49.846;9.610;2023-04-15T05:15:11;4.30;99.90
16327;DHT22;34812;49.846;9.610;2023-04-15T05:16:13;4.30;99.90
16327;DHT22;34812;49.846;9.610;2023-04-15T05:17:13;4.30;99.90
16327;DHT22;34812;49.846;9.610;2023-04-15T05:18:16;4.30;99.90
16327;DHT22;34812;49.846;9.610;2023-04-15T05:19:17;4.30;99.90
16327;DHT22;34812;49.846;9.610;2023-04-15T05:20:19;4.30;99.90
16327;DHT22;34812;49.846;9.610;2023-04-15T05:21:20;4.30;99.90
16327;DHT22;34812;49.846;9.610;2023-04-15T05:22:21;4.40;99.90
16327;DHT22;34812;49.846;9.610;2023-04-15T05:23:22;4.40;99.90
16327;DHT22;34812;49.846;9.610;2023-04-15T05:24:24;4.40;99.90
16327;DHT22;34812;49.846;9.610;2023-04-15T05:25:25;4.40;99.90
16327;DHT22;34812;49.846;9.610;2023-04-15T05:26:27;4.40;99.90
16327;DHT22;34812;49.846;9.610;2023-04-15T05:27:28;4.40;99.90
16327;DHT22;34812;49.846;9.610;2023-04-15T05:28:30;4.50;99.90
16327;DHT22;34812;49.846;9.610;2023-04-15T05:29:31;4.50;99.90
16327;DHT22;34812;49.846;9.610;2023-04-15T05:30:32;4.60;99.90
16327;DHT22;34812;49.846;9.610;2023-04-15T05:31:33;4.60;99.90
16327;DHT22;34812;49.846;9.610;2023-04-15T05:32:35;4.60;99.90
16327;DHT22;34812;49.846;9.610;2023-04-15T05:33:37;4.60;99.90
16327;DHT22;34812;49.846;9.610;2023-04-15T05:34:39;4.70;99.90
16327;DHT22;34812;49.846;9.610;2023-04-15T05:35:41;4.70;99.90
16327;DHT22;34812;49.846;9.610;2023-04-15T05:36:42;4.80;99.90
16327;DHT22;34812;49.846;9.610;2023-04-15T05:37:43;4.80;99.90
16327;DHT22;34812;49.846;9.610;2023-04-15T05:38:45;4.80;99.90
16327;DHT22;34812;49.846;9.610;2023-04-15T05:39:46;4.90;99.90
16327;DHT22;34812;49.846;9.610;2023-04-15T05:40:48;4.90;99.90
16327;DHT22;34812;49.846;9.610;2023-04-15T05:41:50;5.00;99.90
16327;DHT22;34812;49.846;9.610;2023-04-15T05:42:51;5.00;99.90
16327;DHT22;34812;49.846;9.610;2023-04-15T05:43:52;5.10;99.90
16327;DHT22;34812;49.846;9.610;2023-04-15T05:44:53;5.10;99.90
16327;DHT22;34812;49.846;9.610;2023-04-15T05:45:55;5.10;99.90
16327;DHT22;34812;49.846;9.610;2023-04-15T05:46:57;5.20;99.90
16327;DHT22;34812;49.846;9.610;2023-04-15T05:47:58;5.20;99.90
16327;DHT22;34812;49.846;9.610;2023-04-15T05:49:00;5.30;99.90
16327;DHT22;34812;49.846;9.610;2023-04-15T05:50:03;5.30;99.90
16327;DHT22;34812;49.846;9.610;2023-04-15T05:51:04;5.30;99.90
16327;DHT22;34812;49.846;9.610;2023-04-15T05:52:06;5.40;99.90
16327;DHT22;34812;49.846;9.610;2023-04-15T05:53:07;5.40;99.90
16327;DHT22;34812;49.846;9.610;2023-04-15T05:54:08;5.40;99.90
16327;DHT22;34812;49.846;9.610;2023-04-15T05:55:09;5.50;99.90
16327;DHT22;34812;49.846;9.610;2023-04-15T05:56:11;5.50;99.90
16327;DHT22;34812;49.846;9.610;2023-04-15T05:57:12;5.50;99.90
16327;DHT22;34812;49.846;9.610;2023-04-15T05:58:13;5.50;99.90
16327;DHT22;34812;49.846;9.610;2023-04-15T05:59:14;5.60;99.90
16327;DHT22;34812;49.846;9.610;2023-04-15T06:00:16;5.70;99.90
16327;DHT22;34812;49.846;9.610;2023-04-15T06:01:17;5.70;99.90
16327;DHT22;34812;49.846;9.610;2023-04-15T06:02:18;5.70;99.90
16327;DHT22;34812;49.846;9.610;2023-04-15T06:03:19;5.80;99.90
16327;DHT22;34812;49.846;9.610;2023-04-15T06:04:23;5.80;99.90
16327;DHT22;34812;49.846;9.610;2023-04-15T06:05:24;5.80;99.90
16327;DHT22;34812;49.846;9.610;2023-04-15T06:06:27;5.80;99.90
16327;DHT22;34812;49.846;9.610;2023-04-15T06:07:28;5.90;99.90
16327;DHT22;34812;49.846;9.610;2023-04-15T06:08:29;5.90;99.90
16327;DHT22;34812;49.846;9.610;2023-04-15T06:09:30;5.90;99.90
16327;DHT22;34812;49.846;9.610;2023-04-15T06:10:33;6.00;99.90
16327;DHT22;34812;49.846;9.610;2023-04-15T06:11:36;6.10;99.90
16327;DHT22;34812;49.846;9.610;2023-04-15T06:12:37;6.20;99.90
16327;DHT22;34812;49.846;9.610;2023-04-15T06:13:38;6.30;99.90
16327;DHT22;34812;49.846;9.610;2023-04-15T06:14:40;6.30;99.90
16327;DHT22;34812;49.846;9.610;2023-04-15T06:15:42;6.40;99.90
16327;DHT22;34812;49.846;9.610;2023-04-15T06:16:43;6.40;99.90
16327;DHT22;34812;49.846;9.610;2023-04-15T06:17:44;6.40;99.90
16327;DHT22;34812;49.846;9.610;2023-04-15T06:18:46;6.50;99.90
16327;DHT22;34812;49.846;9.610;2023-04-15T06:19:49;6.60;99.90
16327;DHT22;34812;49.846;9.610;2023-04-15T06:20:54;6.60;99.90
16327;DHT22;34812;49.846;9.610;2023-04-15T06:21:57;6.60;99.90
16327;DHT22;34812;49.846;9.610;2023-04-15T06:22:59;6.70;99.90
16327;DHT22;34812;49.846;9.610;2023-04-15T06:23:59;6.70;99.90
16327;DHT22;34812;49.846;9.610;2023-04-15T06:25:03;6.80;99.90
16327;DHT22;34812;49.846;9.610;2023-04-15T06:26:04;6.80;99.90
16327;DHT22;34812;49.846;9.610;2023-04-15T06:27:05;6.90;99.90
16327;DHT22;34812;49.846;9.610;2023-04-15T06:28:06;6.90;99.90
16327;DHT22;34812;49.846;9.610;2023-04-15T06:29:08;6.90;99.90
16327;DHT22;34812;49.846;9.610;2023-04-15T06:30:09;7.00;99.90
16327;DHT22;34812;49.846;9.610;2023-04-15T06:31:11;7.00;99.90
16327;DHT22;34812;49.846;9.610;2023-04-15T06:32:12;7.00;99.90
16327;DHT22;34812;49.846;9.610;2023-04-15T06:33:14;7.00;99.90
16327;DHT22;34812;49.846;9.610;2023-04-15T06:34:15;7.10;99.90
16327;DHT22;34812;49.846;9.610;2023-04-15T06:35:18;7.20;99.90
16327;DHT22;34812;49.846;9.610;2023-04-15T06:36:19;7.30;99.90